Weather observations for the past three days for
Walnut Ridge Regional Airport
Metric (Imperial)
Date Time (cdt) Wind (kph) Vis. (km) Weather Sky Cond. Temperature (ºC) Relative Humidity Wind Chill (°C) Heat Index (°C) Pressure Precipitation (cm)
Air Dwpt 6 hour altimeter (cm) sea level (mb) 1 hr 3 hr 6 hr
Max. Min.
03 22:56 Calm 16.09 Fair CLR 28.3 21.7 67% 31 76.07 1013.9
03 21:56 SE 6 16.09 Fair CLR 27.8 22.2 72% 30 76.07 1014.0
03 20:56 S 9 16.09 Fair CLR 29.4 21.7 63% 32 76.05 1013.6
03 19:56 S 13 16.09 Fair CLR 30 22.2 63% 33 76.02 1013.2
03 18:56 S 13 16.09 Fair CLR 32.2 22.2 36.7 32.2 56% 36 76 1012.9
03 17:56 S 11 16.09 Fair CLR 35 21.7 46% 39 75.97 1012.6
03 16:56 S 15 16.09 Fair CLR 36.1 21.7 43% 41 75.97 1012.6
03 15:56 S 19 16.09 Fair CLR 36.1 22.2 45% 41 76.02 1013.2
03 14:56 SE 13 16.09 A Few Clouds FEW060 36.1 22.8 46% 42 76.07 1013.8
03 13:56 S 11 G 26 16.09 A Few Clouds FEW060 35.6 22.2 46% 40 76.12 1014.5
03 12:56 S 15 16.09 A Few Clouds FEW055 35 22.2 35 23.9 47% 40 76.15 1015.1
03 11:56 S 11 16.09 Fair CLR 35 22.2 47% 40 76.2 1015.7
03 10:56 SW 9 16.09 Fair CLR 33.9 22.8 52% 39 76.25 1016.2
03 09:56 Vrbl 6 16.09 Fair CLR 31.7 23.3 61% 37 76.25 1016.3
03 08:56 S 6 16.09 Fair CLR 28.9 23.3 72% 33 76.25 1016.5
03 07:56 Calm 16.09 Fair CLR 26.7 23.3 82% 29 76.25 1016.5
03 06:56 Calm 16.09 Fair CLR 24.4 22.8 27.2 23.3 91% 24 76.25 1016.3
03 05:56 S 6 16.09 Fair CLR 23.3 23.3 100% 76.2 1015.8
03 04:56 Calm 16.09 Fair CLR 24.4 22.8 91% 24 76.17 1015.4
03 03:56 Calm 16.09 Fair CLR 24.4 23.3 94% 24 76.15 1015.1
03 02:56 Calm 16.09 Fair CLR 25.6 22.8 85% 27 76.15 1014.9
03 01:56 Calm 16.09 Fair CLR 25.6 23.3 87% 27 76.15 1014.9
03 00:56 SW 6 16.09 Fair CLR 27.2 21.7 33.3 26.1 72% 29 76.15 1015.0
02 23:56 Calm 16.09 Fair CLR 26.7 22.8 79% 29 76.15 1014.9
02 22:56 E 6 16.09 Fair CLR 26.7 22.8 79% 29 76.15 1014.9
02 21:56 SE 7 16.09 Fair CLR 27.2 23.3 79% 30 76.15 1015.0
02 20:56 S 7 16.09 Fair CLR 28.9 22.8 70% 32 76.12 1014.6
02 19:56 S 13 16.09 Fair CLR 30 22.2 63% 33 76.07 1014.0
02 18:56 S 13 16.09 Fair CLR 33.3 21.7 37.2 33.3 51% 37 76.07 1014.0
02 17:56 S 15 16.09 Fair CLR 35 21.7 46% 39 76.1 1014.1
02 16:56 S 17 16.09 Fair CLR 36.1 21.7 43% 41 76.1 1014.3
02 15:56 S 15 16.09 Fair CLR 36.7 21.1 40% 41 76.12 1014.7
02 14:56 S 17 16.09 Fair CLR 36.1 21.7 43% 41 76.17 1015.4
02 13:56 S 7 16.09 Fair CLR 35.6 21.7 44% 40 76.23 1016.0
02 12:56 Vrbl 11 16.09 Fair CLR 35 21.7 35.6 23.3 46% 39 76.28 1016.7
02 11:56 SW 9 16.09 Fair CLR 34.4 22.2 49% 39 76.35 1017.6
02 10:56 SW 7 16.09 Fair CLR 33.3 22.8 54% 38 76.38 1018.2
02 09:56 S 9 16.09 Fair CLR 31.1 22.8 61% 35 76.38 1018.1
02 08:56 S 7 16.09 Fair CLR 28.3 22.8 72% 32 76.38 1018.3
02 07:56 Calm 16.09 Fair CLR 25 23.3 90% 26 76.38 1018.1
02 06:56 NW 6 16.09 Fair CLR 23.3 22.8 26.7 22.8 97% 76.33 1017.5
02 05:56 Calm 16.09 Fair CLR 23.9 22.2 90% 23 76.3 1017.0
02 04:56 NE 7 16.09 Fair CLR 23.3 22.8 97% 76.28 1016.7
02 03:56 Calm 16.09 Fair CLR 25 22.2 85% 26 76.28 1016.6
02 02:56 Calm 16.09 Fair CLR 25.6 22.2 82% 27 76.25 1016.3
02 01:56 Calm 16.09 Fair CLR 26.1 21.7 77% 28 76.28 1016.5
02 00:56 SE 7 16.09 Fair CLR 26.7 21.7 32.8 26.1 74% 29 76.25 1016.5
01 23:56 SE 11 16.09 Fair CLR 26.1 21.7 77% 28 76.25 1016.2
01 22:56 SE 9 16.09 Fair CLR 26.7 22.2 76% 29 76.23 1015.9
01 21:56 SE 6 16.09 Fair CLR 27.8 22.8 74% 31 76.2 1015.8
01 20:56 S 9 16.09 Fair CLR 28.9 22.2 67% 32 76.17 1015.5
01 19:56 Calm 16.09 Fair CLR 29.4 22.8 68% 33 76.15 1015.0
01 18:56 S 11 16.09 Fair CLR 32.8 21.7 36.7 32.8 52% 36 76.15 1015.2
01 17:56 S 11 16.09 Fair CLR 35.6 20.6 41% 39 76.17 1015.4
01 16:56 S 13 16.09 Fair CLR 36.1 21.7 43% 41 76.17 1015.2
01 15:56 S 19 16.09 Fair CLR 36.1 21.1 42% 40 76.2 1015.5
01 14:56 SE 15 16.09 Fair CLR 36.1 21.7 43% 41 76.23 1016.1
01 13:56 S 13 16.09 Fair CLR 35.6 21.7 44% 40 76.3 1016.9
01 11:56 Calm 16.09 Fair CLR 34.4 22.2 49% 39 76.38 1018.1
01 09:56 SW 9 16.09 Fair CLR 31.7 22.8 59% 36 76.43 1018.7
01 08:56 S 9 16.09 Fair CLR 28.9 22.8 70% 32 76.45 1019.0
01 07:56 Calm 16.09 Fair CLR 25 23.9 94% 26 76.45 1019.0
01 06:56 SE 7 16.09 Fair CLR 22.8 22.8 25.6 22.2 100% 76.4 1018.5
01 05:56 Calm 16.09 Fair CLR 22.2 22.2 100% 76.38 1018.0
01 04:56 Calm 16.09 Fair CLR 23.3 22.8 97% 76.35 1017.5
01 03:56 S 6 16.09 Fair CLR 22.8 22.2 96% 76.3 1017.3
01 02:56 N 9 16.09 Fair CLR 23.3 22.2 94% 76.3 1016.9
01 01:56 N 11 16.09 Fair CLR 24.4 21.7 85% 25 76.28 1016.7
01 00:56 Calm 16.09 Fair CLR 25.6 21.7 31.1 24.4 79% 27 76.28 1016.8
31 23:56 Calm 16.09 Fair CLR 25.6 21.7 79% 27 76.28 1016.8
Date Time (cdt) Wind (kph) Vis. (km) Weather Sky Cond. Air Dwpt Max. Min. Relative Humidity Wind Chill (°C) Heat Index (°C) altimeter (cm) sea level (mb) 1 hr 3 hr 6 hr
6 hour
Temperature (ºC) Pressure Precipitation (cm)